Time;durP1;ratioP1;P1;durP2;ratioP2;P2;SDS_P1;SDS_P2;PMS_P1;PMS_P2;Temp;Humidity;BMP_temperature;BMP_pressure;BME280_temperature;BME280_humidity;BME280_pressure;Samples;Min_cycle;Max_cycle;Signal;HPM_P1;HPM_P2
2023/07/05 00:01:29;;;;;;;2.40;1.83;;;16.40;99.90;;;;;;5016010;28;21088;-79
2023/07/05 00:03:55;;;;;;;2.55;1.70;;;16.40;99.90;;;;;;5016247;28;20036;-80
2023/07/05 00:06:20;;;;;;;3.63;1.88;;;16.40;99.90;;;;;;5016407;28;20038;-79
2023/07/05 00:08:46;;;;;;;4.55;2.00;;;16.30;99.90;;;;;;5018192;28;20444;-80
2023/07/05 00:11:12;;;;;;;2.47;1.70;;;16.30;99.90;;;;;;5017101;28;20021;-79
2023/07/05 00:13:37;;;;;;;2.92;2.13;;;16.20;99.90;;;;;;5015068;28;20449;-79
2023/07/05 00:16:04;;;;;;;4.35;1.90;;;16.20;99.90;;;;;;5017050;28;20045;-79
2023/07/05 00:18:30;;;;;;;3.40;1.67;;;16.20;99.90;;;;;;5016785;28;20105;-79
2023/07/05 00:21:05;;;;;;;3.33;1.73;;;16.10;99.90;;;;;;5016299;28;20105;-79
2023/07/05 00:23:32;;;;;;;3.25;1.83;;;16.10;99.90;;;;;;5017455;28;20074;-79
2023/07/05 00:25:58;;;;;;;4.53;1.85;;;16.10;99.90;;;;;;5015681;28;20037;-79
2023/07/05 00:28:24;;;;;;;5.00;2.22;;;16.10;99.90;;;;;;5016117;28;20045;-78
2023/07/05 00:30:49;;;;;;;5.50;2.25;;;16.10;99.90;;;;;;5013676;28;20125;-79
2023/07/05 00:33:15;;;;;;;2.10;1.63;;;16.10;99.90;;;;;;5014967;28;20095;-79
2023/07/05 00:35:48;;;;;;;2.97;1.70;;;16.10;99.90;;;;;;5016181;28;20022;-79
2023/07/05 00:38:15;;;;;;;4.13;1.83;;;16.00;99.90;;;;;;5013348;28;20112;-79
2023/07/05 00:40:40;;;;;;;3.75;1.98;;;16.00;99.90;;;;;;5015907;28;20046;-79
2023/07/05 00:43:06;;;;;;;2.72;1.50;;;15.90;99.90;;;;;;5013232;28;20036;-79
2023/07/05 00:45:51;;;;;;;5.32;1.77;;;15.90;99.90;;;;;;5016923;28;20032;-79
2023/07/05 00:48:19;;;;;;;3.67;1.77;;;15.80;99.90;;;;;;5015518;28;20056;-78
2023/07/05 00:50:49;;;;;;;3.72;2.10;;;15.80;99.90;;;;;;5013601;28;20063;-79
2023/07/05 00:53:15;;;;;;;3.20;2.05;;;15.80;99.90;;;;;;5014647;28;20112;-79
2023/07/05 00:55:46;;;;;;;3.17;1.90;;;15.70;99.90;;;;;;5016391;28;20030;-79
2023/07/05 00:58:12;;;;;;;5.28;2.33;;;15.70;99.90;;;;;;5015304;28;20034;-79
2023/07/05 01:00:38;;;;;;;3.38;1.80;;;15.70;99.90;;;;;;5016937;28;20049;-79
2023/07/05 01:03:10;;;;;;;3.95;1.95;;;15.70;99.90;;;;;;5015153;28;20022;-79
2023/07/05 01:05:36;;;;;;;3.72;1.70;;;15.60;99.90;;;;;;5014881;28;20038;-79
2023/07/05 01:08:04;;;;;;;3.42;1.83;;;15.60;99.90;;;;;;5017410;28;20022;-79
2023/07/05 01:10:30;;;;;;;3.13;1.95;;;15.50;99.90;;;;;;5015847;28;20043;-78
2023/07/05 01:13:09;;;;;;;4.28;2.20;;;15.60;99.90;;;;;;5013805;28;20132;-79
2023/07/05 01:16:00;;;;;;;4.45;2.03;;;15.40;99.90;;;;;;5015005;28;21469;-79
2023/07/05 01:18:34;;;;;;;2.60;1.83;;;15.40;99.90;;;;;;4984090;28;20092;-78
2023/07/05 01:21:05;;;;;;;3.30;1.98;;;15.40;99.90;;;;;;5013606;28;20042;-79
2023/07/05 01:24:15;;;;;;;3.75;2.42;;;15.40;99.90;;;;;;5015853;28;20413;-78
2023/07/05 01:27:08;;;;;;;3.03;1.98;;;15.50;99.90;;;;;;5015616;28;20032;-80
2023/07/05 01:29:50;;;;;;;3.97;2.38;;;15.50;99.90;;;;;;5019146;28;20041;-79
2023/07/05 01:32:34;;;;;;;4.15;2.15;;;15.50;99.90;;;;;;5018243;28;20037;-78
2023/07/05 01:35:05;;;;;;;4.25;2.25;;;15.50;99.90;;;;;;5019483;28;20030;-79
2023/07/05 01:37:40;;;;;;;4.22;1.98;;;15.60;99.90;;;;;;5020078;28;21774;-79
2023/07/05 01:40:25;;;;;;;2.78;2.00;;;15.60;99.90;;;;;;5019736;28;20042;-79
2023/07/05 01:42:55;;;;;;;3.22;2.03;;;15.60;99.90;;;;;;5017353;28;20067;-79
2023/07/05 01:45:30;;;;;;;4.63;2.05;;;15.70;99.90;;;;;;5018869;28;20047;-79
2023/07/05 01:48:03;;;;;;;3.17;2.03;;;15.70;99.90;;;;;;5018513;28;20062;-79
2023/07/05 01:50:42;;;;;;;3.22;1.95;;;15.70;99.90;;;;;;5020585;28;20537;-79
2023/07/05 01:53:17;;;;;;;2.40;1.85;;;15.70;99.90;;;;;;5019895;28;20029;-79
2023/07/05 01:56:00;;;;;;;4.57;2.00;;;15.70;99.90;;;;;;5019456;28;20052;-79
2023/07/05 01:58:30;;;;;;;2.50;1.88;;;15.70;99.90;;;;;;5018794;28;20037;-79
2023/07/05 02:00:58;;;;;;;3.00;1.90;;;15.70;99.90;;;;;;5018251;28;20049;-79
2023/07/05 02:03:26;;;;;;;3.45;2.10;;;15.70;99.90;;;;;;5017222;28;20025;-79
2023/07/05 02:05:52;;;;;;;2.88;2.00;;;15.70;99.90;;;;;;5018525;28;20042;-79
2023/07/05 02:08:23;;;;;;;3.65;2.13;;;15.70;99.90;;;;;;5017737;28;20038;-79
2023/07/05 02:10:49;;;;;;;4.70;2.15;;;15.70;99.90;;;;;;5018837;28;20030;-79
2023/07/05 02:13:14;;;;;;;3.45;2.03;;;15.70;99.90;;;;;;5018667;28;20028;-79
2023/07/05 02:15:40;;;;;;;4.00;2.00;;;15.60;99.90;;;;;;5017995;28;20042;-79
2023/07/05 02:18:07;;;;;;;3.53;1.98;;;15.60;99.90;;;;;;5017184;28;20037;-79
2023/07/05 02:20:33;;;;;;;3.33;1.95;;;15.60;99.90;;;;;;5017704;28;20044;-79
2023/07/05 02:22:59;;;;;;;4.47;2.17;;;15.60;99.90;;;;;;5019079;28;20120;-79
2023/07/05 02:25:25;;;;;;;3.80;2.22;;;15.60;99.90;;;;;;5016706;28;20041;-79
2023/07/05 02:27:50;;;;;;;2.97;2.05;;;15.50;99.90;;;;;;5017087;28;20036;-79
2023/07/05 02:30:17;;;;;;;2.45;2.00;;;15.50;99.90;;;;;;5016654;28;20030;-80
2023/07/05 02:32:43;;;;;;;6.25;2.20;;;15.50;99.90;;;;;;5017065;28;20034;-79
2023/07/05 02:35:08;;;;;;;7.32;2.25;;;15.50;99.90;;;;;;5017943;28;20033;-79
2023/07/05 02:37:35;;;;;;;7.07;2.50;;;15.50;99.90;;;;;;5012339;28;20030;-79
2023/07/05 02:40:01;;;;;;;3.88;2.00;;;15.50;99.90;;;;;;5010809;28;20132;-79
2023/07/05 02:42:27;;;;;;;3.60;2.08;;;15.50;99.90;;;;;;5011700;28;20687;-79
2023/07/05 02:44:52;;;;;;;3.92;2.67;;;15.40;99.90;;;;;;5010802;28;20044;-79
2023/07/05 02:47:19;;;;;;;6.82;2.55;;;15.40;99.90;;;;;;5012980;28;20057;-79
2023/07/05 02:49:45;;;;;;;4.88;2.40;;;15.40;99.90;;;;;;5010805;28;20116;-79
2023/07/05 02:52:12;;;;;;;2.80;2.20;;;15.40;99.90;;;;;;5010480;28;21092;-79
2023/07/05 02:54:37;;;;;;;4.50;2.05;;;15.40;99.90;;;;;;5009420;28;20037;-79
2023/07/05 02:57:03;;;;;;;4.50;2.15;;;15.40;99.90;;;;;;5010724;28;20086;-79
2023/07/05 02:59:29;;;;;;;4.88;2.30;;;15.30;99.90;;;;;;5010048;28;20068;-79
2023/07/05 03:01:55;;;;;;;3.78;2.03;;;15.30;99.90;;;;;;5009271;28;20705;-79
2023/07/05 03:04:20;;;;;;;4.20;2.28;;;15.20;99.90;;;;;;5007921;28;20064;-79
2023/07/05 03:06:46;;;;;;;4.97;3.03;;;15.10;99.90;;;;;;5006765;28;21394;-79
2023/07/05 03:09:12;;;;;;;3.80;2.10;;;15.10;99.90;;;;;;5006684;28;20640;-79
2023/07/05 03:11:37;;;;;;;3.83;2.15;;;15.00;99.90;;;;;;5005921;28;20033;-78
2023/07/05 03:14:03;;;;;;;6.22;2.47;;;15.00;99.90;;;;;;5004946;28;20056;-79
2023/07/05 03:16:29;;;;;;;4.47;2.70;;;15.00;99.90;;;;;;5009281;28;20119;-78
2023/07/05 03:18:54;;;;;;;5.43;2.30;;;14.90;99.90;;;;;;5009663;28;20037;-78
2023/07/05 03:21:20;;;;;;;6.05;2.45;;;14.90;99.90;;;;;;5010623;28;20043;-79
2023/07/05 03:23:45;;;;;;;4.18;2.30;;;14.90;99.90;;;;;;5010251;28;20041;-78
2023/07/05 03:26:11;;;;;;;6.10;2.85;;;14.90;99.90;;;;;;5011950;28;20041;-79
2023/07/05 03:28:37;;;;;;;4.07;2.20;;;14.80;99.90;;;;;;5012000;28;20033;-79
2023/07/05 03:31:10;;;;;;;5.18;2.05;;;14.80;99.90;;;;;;5009877;28;20029;-78
2023/07/05 03:33:36;;;;;;;3.28;2.20;;;14.80;99.90;;;;;;5011036;28;20101;-78
2023/07/05 03:36:07;;;;;;;3.90;2.10;;;14.80;99.90;;;;;;5009948;28;20030;-78
2023/07/05 03:38:34;;;;;;;3.83;2.20;;;14.90;99.90;;;;;;5011350;28;20033;-79
2023/07/05 03:41:04;;;;;;;3.97;2.20;;;14.90;99.90;;;;;;5011469;28;20401;-78
2023/07/05 03:43:35;;;;;;;3.30;2.08;;;14.90;99.90;;;;;;5009516;28;20034;-78
2023/07/05 03:46:06;;;;;;;5.55;2.20;;;14.90;99.90;;;;;;5009466;28;20375;-78
2023/07/05 03:48:35;;;;;;;3.42;2.13;;;15.00;99.90;;;;;;5011906;28;20084;-78
2023/07/05 03:51:02;;;;;;;4.75;2.00;;;15.00;99.90;;;;;;5007214;28;20033;-78
2023/07/05 03:53:28;;;;;;;3.28;2.10;;;15.00;99.90;;;;;;5010860;28;20033;-79
2023/07/05 03:55:54;;;;;;;4.22;2.55;;;15.00;99.90;;;;;;5009938;28;20085;-78
2023/07/05 03:58:20;;;;;;;5.63;2.00;;;15.10;99.90;;;;;;5010271;28;20060;-77
2023/07/05 04:00:46;;;;;;;5.53;2.03;;;15.20;99.90;;;;;;5011837;28;20038;-78
2023/07/05 04:03:12;;;;;;;5.53;2.03;;;15.20;99.90;;;;;;5009792;28;20029;-79
2023/07/05 04:05:38;;;;;;;3.47;1.80;;;15.30;99.90;;;;;;5036761;22;20042;-83
2023/07/05 04:08:04;;;;;;;3.85;2.33;;;15.30;99.90;;;;;;5011889;28;20033;-82
2023/07/05 04:10:29;;;;;;;3.97;2.28;;;15.40;99.90;;;;;;5011934;28;20112;-83
2023/07/05 04:12:55;;;;;;;3.90;1.98;;;15.40;99.90;;;;;;5008335;28;20613;-84
2023/07/05 04:15:21;;;;;;;3.30;2.20;;;15.50;99.90;;;;;;4989710;28;20078;-84
2023/07/05 04:17:46;;;;;;;4.55;2.15;;;15.50;99.90;;;;;;4986804;28;20121;-84
2023/07/05 04:20:12;;;;;;;3.97;2.20;;;15.60;99.90;;;;;;4987131;28;20046;-82
2023/07/05 04:22:41;;;;;;;3.72;2.10;;;15.70;99.90;;;;;;4990681;28;20030;-82
2023/07/05 04:25:08;;;;;;;4.32;1.95;;;15.80;99.90;;;;;;4988292;28;20482;-82
2023/07/05 04:27:34;;;;;;;2.65;2.00;;;15.80;99.90;;;;;;4988767;28;20038;-82
2023/07/05 04:29:59;;;;;;;4.03;2.00;;;15.90;99.90;;;;;;4989329;28;20033;-81
2023/07/05 04:32:25;;;;;;;3.20;2.15;;;15.90;99.90;;;;;;4971599;28;20033;-81
2023/07/05 04:34:51;;;;;;;4.07;2.20;;;16.00;99.90;;;;;;4990642;28;20576;-83
2023/07/05 04:37:17;;;;;;;4.22;2.10;;;16.10;99.90;;;;;;4989032;28;20022;-86
2023/07/05 04:39:43;;;;;;;3.60;2.10;;;16.10;99.90;;;;;;4988699;28;20038;-84
2023/07/05 04:42:08;;;;;;;5.38;2.50;;;16.20;99.90;;;;;;4988553;28;20151;-84
2023/07/05 04:44:34;;;;;;;5.25;2.20;;;16.30;99.90;;;;;;4988022;28;20041;-87
2023/07/05 04:46:59;;;;;;;4.53;2.00;;;16.30;99.90;;;;;;4989957;28;20269;-83
2023/07/05 04:49:25;;;;;;;5.05;2.40;;;16.40;99.90;;;;;;4973014;28;20034;-83
2023/07/05 04:51:51;;;;;;;4.03;1.90;;;16.40;99.90;;;;;;4991086;28;20073;-84
2023/07/05 04:54:17;;;;;;;3.05;2.00;;;16.50;99.90;;;;;;4989547;28;20035;-85
2023/07/05 04:56:42;;;;;;;5.65;2.13;;;16.60;99.90;;;;;;4990644;28;20050;-84
2023/07/05 04:59:10;;;;;;;5.53;2.42;;;16.70;99.90;;;;;;4992799;28;20034;-85
2023/07/05 05:01:36;;;;;;;2.72;1.92;;;16.80;99.90;;;;;;4992791;28;20096;-82
2023/07/05 05:04:02;;;;;;;3.15;2.00;;;16.90;99.90;;;;;;4993131;28;20022;-82
2023/07/05 05:06:27;;;;;;;3.35;1.77;;;17.00;99.90;;;;;;4993308;28;20042;-82
2023/07/05 05:08:53;;;;;;;4.13;1.80;;;17.10;99.90;;;;;;4992749;28;20470;-81
2023/07/05 05:11:18;;;;;;;3.33;2.08;;;17.20;99.90;;;;;;4996730;28;20461;-82
2023/07/05 05:13:44;;;;;;;3.67;2.00;;;17.20;99.90;;;;;;4997762;28;20053;-82
2023/07/05 05:16:09;;;;;;;5.88;2.17;;;17.20;99.90;;;;;;4994556;28;21393;-78
2023/07/05 05:18:37;;;;;;;4.95;2.20;;;17.10;99.90;;;;;;4988213;28;20414;-77
2023/07/05 05:21:03;;;;;;;4.47;2.38;;;17.20;99.90;;;;;;4987174;28;20049;-78
2023/07/05 05:23:29;;;;;;;4.22;2.38;;;17.10;99.90;;;;;;4987516;28;20034;-77
2023/07/05 05:25:55;;;;;;;4.60;2.25;;;17.10;99.90;;;;;;4987873;28;20193;-77
2023/07/05 05:28:21;;;;;;;4.57;2.20;;;17.00;99.90;;;;;;4986908;28;20061;-76
2023/07/05 05:30:48;;;;;;;3.90;1.90;;;17.00;99.90;;;;;;4985952;28;20137;-77
2023/07/05 05:33:16;;;;;;;3.55;2.00;;;17.00;99.90;;;;;;4986251;28;20073;-76
2023/07/05 05:35:49;;;;;;;4.50;2.05;;;17.10;99.90;;;;;;4988309;28;20065;-77
2023/07/05 05:38:19;;;;;;;3.70;2.10;;;17.20;99.90;;;;;;4986608;28;20243;-77
2023/07/05 05:40:46;;;;;;;3.72;2.20;;;17.20;99.90;;;;;;4986620;28;20068;-77
2023/07/05 05:43:11;;;;;;;5.10;2.20;;;17.30;99.90;;;;;;4984673;28;20050;-76
2023/07/05 05:45:37;;;;;;;5.07;2.03;;;17.30;99.90;;;;;;4985286;28;20042;-77
2023/07/05 05:48:03;;;;;;;3.00;1.88;;;17.40;99.90;;;;;;4986097;28;20041;-77
2023/07/05 05:50:28;;;;;;;3.83;1.90;;;17.60;99.90;;;;;;4983330;28;20030;-77
2023/07/05 05:52:54;;;;;;;4.13;2.15;;;17.70;99.90;;;;;;4976697;28;20113;-77
2023/07/05 05:55:19;;;;;;;3.17;2.08;;;17.70;99.90;;;;;;4978067;28;20766;-77
2023/07/05 05:57:45;;;;;;;4.20;2.00;;;17.70;99.90;;;;;;4978040;28;20565;-76
2023/07/05 06:00:12;;;;;;;4.95;2.00;;;17.70;99.90;;;;;;4977279;28;20046;-76
2023/07/05 06:02:38;;;;;;;4.43;2.10;;;17.60;99.90;;;;;;4978429;28;20520;-75
2023/07/05 06:05:04;;;;;;;3.80;2.22;;;17.60;99.90;;;;;;4976166;28;20120;-76
2023/07/05 06:07:30;;;;;;;3.60;2.10;;;17.50;99.90;;;;;;4979739;28;20046;-75
2023/07/05 06:09:56;;;;;;;4.30;2.40;;;17.50;99.90;;;;;;4977143;28;20588;-76
2023/07/05 06:12:24;;;;;;;5.18;2.42;;;17.30;99.90;;;;;;4978072;28;20030;-75
2023/07/05 06:14:49;;;;;;;4.65;2.17;;;17.20;99.90;;;;;;4976506;28;20103;-75
2023/07/05 06:17:15;;;;;;;4.55;2.30;;;17.20;99.90;;;;;;4977952;28;20058;-75
2023/07/05 06:19:40;;;;;;;4.68;2.63;;;17.10;99.90;;;;;;4978265;28;20093;-75
2023/07/05 06:22:06;;;;;;;4.40;2.30;;;17.00;99.90;;;;;;4976394;28;20433;-75
2023/07/05 06:24:31;;;;;;;6.60;2.42;;;17.00;99.90;;;;;;4976140;28;20044;-75
2023/07/05 06:26:58;;;;;;;4.80;2.30;;;17.00;99.90;;;;;;4976893;28;20034;-75
2023/07/05 06:29:23;;;;;;;3.97;2.45;;;16.90;99.90;;;;;;4976816;28;20026;-75
2023/07/05 06:31:49;;;;;;;4.32;2.25;;;16.90;99.90;;;;;;4976068;28;21436;-75
2023/07/05 06:34:14;;;;;;;6.20;2.45;;;16.90;99.90;;;;;;4970051;28;20034;-75
2023/07/05 06:36:40;;;;;;;5.03;2.40;;;17.00;99.90;;;;;;4975976;28;20038;-75
2023/07/05 06:39:06;;;;;;;5.43;2.40;;;17.00;99.90;;;;;;4977634;28;20034;-75
2023/07/05 06:41:31;;;;;;;6.43;2.40;;;17.00;99.90;;;;;;4976705;28;20774;-75
2023/07/05 06:43:57;;;;;;;4.22;2.50;;;17.10;99.90;;;;;;4976644;28;20033;-75
2023/07/05 06:46:22;;;;;;;3.72;2.20;;;17.10;99.90;;;;;;4978621;28;20533;-75
2023/07/05 06:48:50;;;;;;;5.97;2.50;;;17.10;99.90;;;;;;4976135;28;21503;-75
2023/07/05 06:51:16;;;;;;;3.40;2.33;;;17.10;99.90;;;;;;4976968;28;20120;-75
2023/07/05 06:53:41;;;;;;;4.75;2.30;;;17.20;99.90;;;;;;4976892;28;20045;-75
2023/07/05 06:56:09;;;;;;;3.58;2.30;;;17.20;99.90;;;;;;4978786;28;20686;-75
2023/07/05 06:58:35;;;;;;;3.28;2.00;;;17.20;99.90;;;;;;4977206;28;20630;-75
2023/07/05 07:01:01;;;;;;;4.65;2.20;;;17.20;99.90;;;;;;4978173;28;20051;-75
2023/07/05 07:03:26;;;;;;;3.22;2.00;;;17.30;99.90;;;;;;4975141;28;20026;-76
2023/07/05 07:05:56;;;;;;;5.07;2.15;;;17.30;99.90;;;;;;4978592;28;20616;-75
2023/07/05 07:08:24;;;;;;;7.32;2.08;;;17.30;99.90;;;;;;4975903;28;20030;-75
2023/07/05 07:10:49;;;;;;;6.82;2.20;;;17.30;99.90;;;;;;4979897;28;20035;-75
2023/07/05 07:13:15;;;;;;;5.03;2.42;;;17.30;99.90;;;;;;4985099;28;20598;-75
2023/07/05 07:15:41;;;;;;;4.75;2.10;;;17.40;99.90;;;;;;4984057;28;20030;-76
2023/07/05 07:18:08;;;;;;;4.40;2.28;;;17.40;99.90;;;;;;4985074;28;20038;-75
2023/07/05 07:20:34;;;;;;;4.35;2.42;;;17.40;99.90;;;;;;4983393;28;20821;-75
2023/07/05 07:22:59;;;;;;;4.18;2.15;;;17.50;99.90;;;;;;4985923;28;20026;-75
2023/07/05 07:25:26;;;;;;;6.65;2.05;;;17.50;99.90;;;;;;4983522;28;20035;-75
2023/07/05 07:27:51;;;;;;;2.90;1.90;;;17.50;99.90;;;;;;4980920;28;20034;-75
2023/07/05 07:30:17;;;;;;;3.58;2.13;;;17.60;99.90;;;;;;4983693;28;20042;-75
2023/07/05 07:32:45;;;;;;;5.63;2.00;;;17.70;99.90;;;;;;4984891;28;20034;-76
2023/07/05 07:35:11;;;;;;;3.60;1.80;;;17.90;99.90;;;;;;4986194;28;20040;-76
2023/07/05 07:37:36;;;;;;;3.28;1.90;;;18.00;99.90;;;;;;4982762;28;20741;-76
2023/07/05 07:40:04;;;;;;;2.88;2.10;;;18.10;99.90;;;;;;4984776;28;20146;-76
2023/07/05 07:42:29;;;;;;;5.22;2.17;;;18.30;99.90;;;;;;4982433;28;20034;-76
2023/07/05 07:44:55;;;;;;;4.38;2.10;;;18.40;99.90;;;;;;4984671;28;20044;-72
2023/07/05 07:47:21;;;;;;;3.38;1.98;;;18.60;99.90;;;;;;4987109;28;20169;-72
2023/07/05 07:49:48;;;;;;;4.97;2.38;;;18.70;99.90;;;;;;4984959;28;20038;-72
2023/07/05 07:52:14;;;;;;;3.50;1.95;;;19.00;99.90;;;;;;4984019;28;20084;-72
2023/07/05 07:54:40;;;;;;;5.28;2.05;;;19.20;99.90;;;;;;4983477;28;20071;-72
2023/07/05 07:57:06;;;;;;;4.43;2.35;;;19.60;99.90;;;;;;4984292;28;20046;-72
2023/07/05 07:59:31;;;;;;;4.47;2.03;;;20.00;99.90;;;;;;4984337;28;20038;-72
2023/07/05 08:01:57;;;;;;;3.20;2.17;;;20.30;99.90;;;;;;4975682;28;20042;-72
2023/07/05 08:04:22;;;;;;;4.35;2.53;;;20.70;99.90;;;;;;4972081;28;20069;-71
2023/07/05 08:06:52;;;;;;;7.70;2.50;;;20.80;99.90;;;;;;4975705;28;20030;-72
2023/07/05 08:09:21;;;;;;;6.65;2.55;;;20.90;99.90;;;;;;4974926;28;20109;-73
2023/07/05 08:11:47;;;;;;;3.42;2.38;;;20.80;99.90;;;;;;4973486;28;20527;-72
2023/07/05 08:14:13;;;;;;;5.05;2.67;;;20.80;99.90;;;;;;4974769;28;20030;-71
2023/07/05 08:16:40;;;;;;;4.20;2.10;;;20.70;99.90;;;;;;4976049;28;20129;-72
2023/07/05 08:19:06;;;;;;;6.18;2.72;;;20.60;99.90;;;;;;4976834;28;21381;-72
2023/07/05 08:21:32;;;;;;;3.70;2.22;;;20.60;99.90;;;;;;4975121;28;20104;-72
2023/07/05 08:23:57;;;;;;;3.75;2.25;;;20.50;99.90;;;;;;4973170;28;20038;-72
2023/07/05 08:26:23;;;;;;;3.88;2.50;;;20.50;99.90;;;;;;4975322;28;20042;-72
2023/07/05 08:28:49;;;;;;;3.83;2.33;;;20.40;99.90;;;;;;4973532;28;20041;-72
2023/07/05 08:31:14;;;;;;;3.10;2.30;;;20.50;99.90;;;;;;4973366;28;20096;-72
2023/07/05 08:33:40;;;;;;;3.97;2.47;;;20.50;99.90;;;;;;4973759;28;20046;-72
2023/07/05 08:36:12;;;;;;;4.95;2.17;;;20.50;99.90;;;;;;4976404;28;20026;-72
2023/07/05 08:38:59;;;;;;;4.85;2.63;;;20.50;99.90;;;;;;4976379;28;20109;-72
2023/07/05 08:41:41;;;;;;;3.83;2.25;;;20.50;99.90;;;;;;4975013;28;20049;-72
2023/07/05 08:44:18;;;;;;;4.22;2.00;;;20.50;99.90;;;;;;4975531;28;20030;-71
2023/07/05 08:46:47;;;;;;;4.30;2.17;;;20.60;99.90;;;;;;4983630;28;20097;-72
2023/07/05 08:49:22;;;;;;;5.13;2.30;;;20.80;99.90;;;;;;4984065;28;20042;-72
2023/07/05 08:51:49;;;;;;;4.15;2.22;;;21.10;99.90;;;;;;4984772;28;20723;-72
2023/07/05 08:54:16;;;;;;;5.22;2.65;;;21.20;99.90;;;;;;4983613;28;20121;-73
2023/07/05 08:57:19;;;;;;;5.70;2.30;;;21.30;99.90;;;;;;4984740;28;20030;-72
2023/07/05 08:59:53;;;;;;;3.45;2.45;;;21.40;99.90;;;;;;4984975;28;20046;-72
2023/07/05 09:02:19;;;;;;;5.68;2.50;;;21.60;99.90;;;;;;4985538;28;20130;-72
2023/07/05 09:04:47;;;;;;;4.75;2.63;;;21.40;99.90;;;;;;4964585;28;20039;-72
2023/07/05 09:07:28;;;;;;;4.43;2.00;;;21.40;99.90;;;;;;4983970;28;20042;-72
2023/07/05 09:10:12;;;;;;;4.07;2.30;;;21.40;99.90;;;;;;4983823;28;20022;-72
2023/07/05 09:13:02;;;;;;;5.88;2.40;;;21.50;99.90;;;;;;4985226;28;20035;-78
2023/07/05 09:16:04;;;;;;;4.32;2.15;;;21.70;99.90;;;;;;4984855;28;20113;-77
2023/07/05 09:18:54;;;;;;;3.80;2.22;;;22.00;99.90;;;;;;4971423;28;20043;-78
2023/07/05 09:21:31;;;;;;;3.13;2.00;;;22.20;99.90;;;;;;4985142;28;20399;-77
2023/07/05 09:24:17;;;;;;;3.35;2.10;;;22.40;99.90;;;;;;4983317;28;20041;-77
2023/07/05 09:26:52;;;;;;;3.78;2.30;;;22.50;99.90;;;;;;4983883;28;20484;-78
2023/07/05 09:29:29;;;;;;;4.43;2.40;;;22.50;99.90;;;;;;4982172;28;20031;-77
2023/07/05 09:31:55;;;;;;;3.13;2.50;;;22.70;99.90;;;;;;4983584;28;20661;-76
2023/07/05 09:34:42;;;;;;;3.65;2.20;;;22.70;99.90;;;;;;4982206;28;20038;-76
2023/07/05 09:37:22;;;;;;;4.80;2.20;;;22.90;99.90;;;;;;4982603;28;20031;-77
2023/07/05 09:40:15;;;;;;;3.33;2.25;;;23.00;99.90;;;;;;4981729;28;20093;-76
2023/07/05 09:43:08;;;;;;;5.05;2.88;;;23.10;99.90;;;;;;4981836;28;20133;-76
2023/07/05 09:45:34;;;;;;;4.15;2.50;;;23.40;99.90;;;;;;4984820;28;20069;-77
2023/07/05 09:48:05;;;;;;;5.25;2.30;;;23.70;99.90;;;;;;4987934;28;20026;-77
2023/07/05 09:50:32;;;;;;;3.20;2.35;;;23.70;99.90;;;;;;4985686;28;20065;-76
2023/07/05 09:53:41;;;;;;;5.63;2.80;;;23.80;99.90;;;;;;4986933;28;20050;-77
2023/07/05 09:56:23;;;;;;;4.03;2.80;;;23.90;99.90;;;;;;4986533;28;20065;-81
2023/07/05 09:58:49;;;;;;;3.45;2.50;;;24.10;99.90;;;;;;4991583;28;20045;-81
2023/07/05 10:01:21;;;;;;;3.97;3.05;;;24.20;99.90;;;;;;4992103;28;20080;-81
2023/07/05 10:03:54;;;;;;;5.07;2.60;;;24.10;99.90;;;;;;4993290;28;20084;-81
2023/07/05 10:06:24;;;;;;;6.30;3.40;;;24.10;99.90;;;;;;4990439;28;20042;-80
2023/07/05 10:08:53;;;;;;;4.45;2.65;;;24.10;99.90;;;;;;5028095;22;20056;-81
2023/07/05 10:11:33;;;;;;;3.97;2.55;;;24.10;99.90;;;;;;5020193;28;20042;-82
2023/07/05 10:14:09;;;;;;;6.93;2.95;;;24.20;99.90;;;;;;5014899;28;20033;-82
2023/07/05 10:16:46;;;;;;;4.28;2.63;;;24.20;99.90;;;;;;5012874;28;20053;-82
2023/07/05 10:19:38;;;;;;;4.82;2.88;;;24.00;99.90;;;;;;5010660;28;20151;-82
2023/07/05 10:22:20;;;;;;;6.25;3.10;;;23.90;99.90;;;;;;5012438;28;20045;-81
2023/07/05 10:24:48;;;;;;;5.90;3.03;;;23.50;99.90;;;;;;5005009;28;20087;-80
2023/07/05 10:27:33;;;;;;;5.07;2.50;;;23.20;99.90;;;;;;5004826;28;20053;-80
2023/07/05 10:30:07;;;;;;;4.95;2.92;;;23.20;99.90;;;;;;5009424;28;20055;-79
2023/07/05 10:32:33;;;;;;;5.18;3.38;;;23.20;99.90;;;;;;5009259;28;20141;-80
2023/07/05 10:35:00;;;;;;;5.70;3.20;;;23.10;99.90;;;;;;5006200;28;20662;-80
2023/07/05 10:37:30;;;;;;;9.70;3.08;;;23.00;99.90;;;;;;5007523;28;20033;-79
2023/07/05 10:40:00;;;;;;;4.70;2.80;;;22.80;99.90;;;;;;5005741;28;20034;-81
2023/07/05 10:42:26;;;;;;;5.60;2.88;;;22.60;99.90;;;;;;5005720;28;20045;-78
2023/07/05 10:44:53;;;;;;;4.63;2.80;;;22.30;99.90;;;;;;5006034;28;20508;-79
2023/07/05 10:47:20;;;;;;;4.28;3.08;;;22.00;99.90;;;;;;5005431;28;20049;-79
2023/07/05 10:49:47;;;;;;;5.70;3.38;;;21.80;99.90;;;;;;5007238;28;20072;-78
2023/07/05 10:52:17;;;;;;;5.45;2.88;;;21.70;99.90;;;;;;5005329;28;20072;-78
2023/07/05 10:54:53;;;;;;;3.85;2.83;;;21.90;99.90;;;;;;5006854;28;20037;-79
2023/07/05 10:57:41;;;;;;;3.83;3.00;;;21.80;99.90;;;;;;5007878;28;20037;-79
2023/07/05 11:00:23;;;;;;;4.15;3.13;;;22.00;99.90;;;;;;5006637;28;20026;-79
2023/07/05 11:02:55;;;;;;;4.07;2.92;;;22.10;99.90;;;;;;5007222;28;20029;-79
2023/07/05 11:05:51;;;;;;;4.25;2.70;;;22.10;99.90;;;;;;5005405;28;20075;-78
2023/07/05 11:08:28;;;;;;;3.10;2.40;;;22.00;99.90;;;;;;5006106;28;20685;-79
2023/07/05 11:10:58;;;;;;;7.38;2.92;;;22.00;99.90;;;;;;5006109;28;20041;-78
2023/07/05 11:13:23;;;;;;;5.05;3.03;;;21.90;99.90;;;;;;5005702;28;20496;-79
2023/07/05 11:15:49;;;;;;;4.88;2.90;;;21.70;99.90;;;;;;5005785;28;20454;-78
2023/07/05 11:18:18;;;;;;;5.45;2.88;;;21.50;99.90;;;;;;5006422;28;20038;-78
2023/07/05 11:20:56;;;;;;;5.32;2.65;;;21.30;99.90;;;;;;5006898;28;20076;-79
2023/07/05 11:23:43;;;;;;;6.57;3.30;;;21.10;99.90;;;;;;5006948;28;20039;-79
2023/07/05 11:26:27;;;;;;;5.60;3.40;;;21.00;99.90;;;;;;5005301;28;20044;-78
2023/07/05 11:28:53;;;;;;;7.13;3.22;;;20.90;99.90;;;;;;5006766;28;20115;-78
2023/07/05 11:31:27;;;;;;;6.68;3.30;;;20.80;99.90;;;;;;5006487;28;20120;-79
2023/07/05 11:34:21;;;;;;;4.13;2.65;;;20.70;99.90;;;;;;5007133;28;20089;-78
2023/07/05 11:36:54;;;;;;;3.90;2.88;;;20.50;99.90;;;;;;5006824;28;20052;-79
2023/07/05 11:39:51;;;;;;;7.75;2.72;;;20.30;99.90;;;;;;5005111;28;20026;-79
2023/07/05 11:42:21;;;;;;;5.63;2.58;;;20.20;99.90;;;;;;5006497;28;20462;-79
2023/07/05 11:44:56;;;;;;;6.15;3.20;;;20.00;99.90;;;;;;5006482;28;20025;-79
2023/07/05 11:47:24;;;;;;;5.22;2.58;;;19.90;99.90;;;;;;5007163;28;20025;-79
2023/07/05 11:49:52;;;;;;;7.15;3.00;;;19.80;99.90;;;;;;5005119;28;20045;-79
2023/07/05 11:52:25;;;;;;;7.55;2.92;;;19.50;99.90;;;;;;4997457;28;21401;-79
2023/07/05 11:55:10;;;;;;;4.85;3.00;;;19.40;99.90;;;;;;4996949;28;20030;-78
2023/07/05 11:57:42;;;;;;;5.97;3.35;;;19.20;99.90;;;;;;4996328;28;20525;-79
2023/07/05 12:00:10;;;;;;;4.55;2.97;;;19.10;99.90;;;;;;4996301;28;20144;-79
2023/07/05 12:02:44;;;;;;;4.65;3.30;;;19.10;99.90;;;;;;4996699;28;20117;-80
2023/07/05 12:05:14;;;;;;;7.07;3.17;;;19.00;99.90;;;;;;5005286;28;20513;-78
2023/07/05 12:07:42;;;;;;;5.13;3.20;;;19.10;99.90;;;;;;5004785;28;20052;-78
2023/07/05 12:10:15;;;;;;;5.53;2.72;;;19.20;99.90;;;;;;5006605;28;20864;-79
2023/07/05 12:12:41;;;;;;;4.95;2.65;;;19.30;99.90;;;;;;5006116;28;20060;-79
2023/07/05 12:15:10;;;;;;;5.38;2.78;;;19.70;99.90;;;;;;5003901;28;20066;-80
2023/07/05 12:17:38;;;;;;;8.20;3.13;;;20.20;99.90;;;;;;5007843;28;20029;-79
2023/07/05 12:20:12;;;;;;;6.05;2.60;;;20.80;99.90;;;;;;5006293;28;20068;-78
2023/07/05 12:22:38;;;;;;;5.55;2.92;;;21.50;99.90;;;;;;5008279;28;20073;-80
2023/07/05 12:25:04;;;;;;;6.45;2.75;;;22.40;99.90;;;;;;5006469;28;20093;-79
2023/07/05 12:27:32;;;;;;;3.35;2.38;;;22.90;99.90;;;;;;5006124;28;21507;-79
2023/07/05 12:30:00;;;;;;;4.65;2.65;;;23.30;99.90;;;;;;5005888;28;20034;-79
2023/07/05 12:32:28;;;;;;;3.92;2.58;;;23.30;99.90;;;;;;5007255;28;20049;-80
2023/07/05 12:35:12;;;;;;;4.28;2.65;;;23.40;99.90;;;;;;5005861;28;20036;-80
2023/07/05 12:37:38;;;;;;;4.60;2.30;;;23.20;99.90;;;;;;5005696;28;20040;-79
2023/07/05 12:40:20;;;;;;;4.13;2.38;;;23.00;99.90;;;;;;5005876;28;20980;-78
2023/07/05 12:42:52;;;;;;;3.85;2.22;;;22.90;99.90;;;;;;5005717;28;20208;-79
2023/07/05 12:45:34;;;;;;;4.07;2.28;;;22.60;99.90;;;;;;5004560;28;20037;-79
2023/07/05 12:48:13;;;;;;;5.30;2.47;;;22.30;99.90;;;;;;5006879;28;20042;-79
2023/07/05 12:50:38;;;;;;;6.65;2.65;;;22.10;99.90;;;;;;5004774;28;20042;-79
2023/07/05 12:53:18;;;;;;;5.30;2.25;;;21.80;99.90;;;;;;5000946;28;20156;-79
2023/07/05 12:55:54;;;;;;;3.67;2.20;;;21.70;99.90;;;;;;5005525;28;20083;-79
2023/07/05 12:58:22;;;;;;;3.50;2.20;;;21.50;99.90;;;;;;5003873;28;20431;-79
2023/07/05 13:00:53;;;;;;;4.93;2.45;;;21.40;99.90;;;;;;5004447;28;20041;-80
2023/07/05 13:03:19;;;;;;;3.83;2.15;;;21.20;99.90;;;;;;5005270;28;20545;-80